Lomira, Wisconsin
Current Conditions -  °F | °C
As of 3:53 PM on Wednesday 22 Oct 2014 (Local Time) from KFLD Reporting Station
Clear Clear  
Wind Chill: 57°   Ceiling: Unl
Heat Index: 57°   Visibility: 10mi
Dew Point: 38°   Wind: 10mph
Humidity: 49%   Direction: 160°SSE
Pressure: 30.27"   Gusts: NA
Location:  43.59°N, 88.44°W
Report Text: KFLD 222053Z AUTO 16009KT 10SM CLR 14/03 A3027 RMK AO2 SLP255 T01390033 56024
Loading
Personal Weather Stations






























Interactive Weather Map
Tropical Storm Tracking
New forecast layout! Learn more

10-Day Weather Forecast

Advertisements
Track Severe Weather on mobile